Nearby METAR Reports

 

KBED - Bedford, Massachusetts, USA
Distance from station: ENE 12mi, 20km
Updated: Sat, 13-Aug-2022 3:51pm EDT
Overcast
Overcast
 Wind from calm
Wind: Calm
Temperature: 75°F , 24°C
Dew Point: 50°F , 10°C
Humidity: 41%
Barometer: 30.03 inHg , 1016.9 hPa
Clouds: Overcast
Visibility: 10 miles , 16 km
Cloud details: Partly cloudy 6000 ft
Overcast 7500 ft
2022/08/13 19:51 KBED 131951Z 00000KT 10SM SCT060 OVC075 24/10 A3003 RMK AO2 SLP181 T02440100
KFIT - Fitchburg, Massachusetts, USA
Distance from station: NW 15mi, 24km
Updated: Sat, 13-Aug-2022 3:52pm EDT
Overcast
Overcast
 Wind from varies
Wind: varies 3 mph , 6 km/h
Temperature: 75°F , 24°C
Dew Point: 39°F , 4°C
Humidity: 27%
Barometer: 30.05 inHg , 1017.6 hPa
Clouds: Overcast
Visibility: 10 miles , 16 km
Cloud details: Overcast 8000 ft
2022/08/13 19:52 KFIT 131952Z AUTO VRB03KT 10SM OVC080 24/04 A3005 RMK AO2 SLP177 T02390044
 
KORH - Worcester, Massachusetts, USA
Distance from station: WSW 20mi, 32km
Updated: Sat, 13-Aug-2022 3:54pm EDT
Overcast
Overcast
 Wind from varies
Wind: varies 5 mph , 7 km/h
Temperature: 72°F , 22°C
Dew Point: 46°F , 8°C
Humidity: 41%
Barometer: 30.07 inHg , 1018.3 hPa
Clouds: Overcast
Visibility: 10 miles , 16 km
Cloud details: Overcast 6000 ft
2022/08/13 19:54 KORH 131954Z VRB04KT 10SM OVC060 22/08 A3007 RMK AO2 SLP182 T02170083 $
KOWD - Norwood, Massachusetts, USA
Distance from station: SE 24mi, 39km
Updated: Sat, 13-Aug-2022 3:53pm EDT
Mostly cloudy
Mostly cloudy
 Wind from ENE
Wind: ENE 7 mph , 11 km/h
Temperature: 77°F , 25°C
Dew Point: 52°F , 11°C
Humidity: 42%
Barometer: 30.04 inHg , 1017.3 hPa
Clouds: Mostly cloudy
Visibility: 10 miles , 16 km
Cloud details: Few Clouds 5000 ft
Mostly cloudy 8000 ft
2022/08/13 19:53 KOWD 131953Z 06006KT 10SM FEW050 BKN080 25/11 A3004 RMK AO2 SLP171 T02500111
 
KMQE - East Milton, Massachusetts, USA
Distance from station: ESE 25mi, 40km
Updated: Thu, 01-Jul-2021 9:51am EDT
NOT Current

 Wind from WNW
Wind: WNW 9 mph , 15 km/h
Temperature: 75°F , 24°C
Dew Point: 70°F , 21°C
Humidity: 83%
Barometer: 29.86 inHg , 1011.2 hPa
2021/07/01 13:51 KMQE 011351Z AUTO 30008KT 24/21 A2986 RMK AO1 SLP116 T02440206
KASH - Nashua/Boire Fld, New Hampshire, USA
Distance from station: N 26mi, 42km
Updated: Sat, 13-Aug-2022 3:56pm EDT
Mostly cloudy
Mostly cloudy
 Wind from NNW
Wind: NNW 6 mph , 9 km/h
Temperature: 75°F , 24°C
Dew Point: 48°F , 9°C
Humidity: 39%
Barometer: 30.05 inHg , 1017.6 hPa
Clouds: Mostly cloudy
Visibility: 10 miles , 16 km
Cloud details: Mostly cloudy 7500 ft
2022/08/13 19:56 KASH 131956Z 33005KT 10SM BKN075 24/09 A3005 RMK AO2 SLP179 T02390094 $
 
KBOS - Boston, Massachusetts, USA
Distance from station: E 26mi, 42km
Updated: Sat, 13-Aug-2022 3:54pm EDT
Partly cloudy
Partly cloudy
 Wind from ESE
Wind: ESE 9 mph , 15 km/h
Temperature: 70°F , 21°C
Dew Point: 57°F , 14°C
Humidity: 64%
Barometer: 30.05 inHg , 1017.6 hPa
Clouds: Partly cloudy
Visibility: 10 miles , 16 km
Cloud details: Partly cloudy 7500 ft
2022/08/13 19:54 KBOS 131954Z 12008KT 10SM SCT075 21/14 A3005 RMK AO2 SLP176 T02110144
KLWM - Lawrence, Massachusetts, USA
Distance from station: NE 29mi, 47km
Updated: Sat, 13-Aug-2022 3:54pm EDT
Overcast
Overcast
 Wind from NE
Wind: NE 9 mph , 15 km/h
Temperature: 75°F , 24°C
Dew Point: 54°F , 12°C
Humidity: 47%
Barometer: 30.06 inHg , 1017.9 hPa
Clouds: Overcast
Visibility: 10 miles , 16 km
Cloud details: Mostly cloudy 6000 ft
Overcast 8000 ft
2022/08/13 19:54 KLWM 131954Z 05008KT 10SM BKN060 OVC080 24/12 A3006 RMK AO2 SLP178 T02440117
 
KBVY - Beverly, Massachusetts, USA
Distance from station: ENE 33mi, 54km
Updated: Sat, 13-Aug-2022 3:53pm EDT
Few Clouds
Few Clouds
 Wind from NE
Wind: NE 9 mph , 15 km/h
Temperature: 77°F , 25°C
Dew Point: 52°F , 11°C
Humidity: 42%
Barometer: 30.04 inHg , 1017.3 hPa
Clouds: Few Clouds
Visibility: 10 miles , 16 km
Cloud details: Few Clouds 8000 ft
2022/08/13 19:53 KBVY 131953Z 05008KT 010V090 10SM FEW080 25/11 A3004 RMK AO2 SLP165 T02500106
KSFZ - Pawtucket, Rhode Island, USA
Distance from station: S 34mi, 54km
Updated: Sat, 13-Aug-2022 3:56pm EDT
Overcast
Overcast
 Wind from N
Wind: N 7 mph , 11 km/h
Temperature: 73°F , 23°C
Dew Point: 50°F , 10°C
Humidity: 44%
Barometer: 30.05 inHg , 1017.6 hPa
Clouds: Overcast
Visibility: 10 miles , 16 km
Cloud details: Overcast 8000 ft
2022/08/13 19:56 KSFZ 131956Z AUTO 36006KT 10SM OVC080 23/10 A3005 RMK AO2 SLP174 T02330100 $
 
KAFN - Jaffrey, New Hampshire, USA
Distance from station: NW 36mi, 59km
Updated: Sat, 13-Aug-2022 3:52pm EDT
Mostly cloudy
Mostly cloudy
 Wind from WNW
Wind: WNW 7 mph , 11 km/h
Temperature: 75°F , 24°C
Dew Point: 48°F , 9°C
Humidity: 39%
Barometer: 30.07 inHg , 1018.3 hPa
Clouds: Mostly cloudy
Visibility: 10 miles , 16 km
Cloud details: Partly cloudy 5000 ft
Mostly cloudy 7500 ft
2022/08/13 19:52 KAFN 131952Z AUTO 30006KT 10SM SCT050 BKN075 24/09 A3007 RMK AO2 SLP187 T02390094
KMHT - Manchester, New Hampshire, USA
Distance from station: N 37mi, 59km
Updated: Sat, 13-Aug-2022 3:53pm EDT
Mostly cloudy
Mostly cloudy
 Wind from NNE
Wind: NNE 5 mph , 7 km/h
Temperature: 77°F , 25°C
Dew Point: 46°F , 8°C
Humidity: 34%
Barometer: 30.03 inHg , 1016.9 hPa
Clouds: Mostly cloudy
Visibility: 10 miles , 16 km
Cloud details: Mostly cloudy 6000 ft
2022/08/13 19:53 KMHT 131953Z 03004KT 10SM BKN060 25/08 A3003 RMK AO2 SLP180 T02500083
 
KORE - Orange, Massachusetts, USA
Distance from station: WNW 40mi, 65km
Updated: Sat, 13-Aug-2022 3:52pm EDT
Clear
Clear
 Wind from NNW
Wind: NNW 8 mph , 13 km/h, Gust: 20 mph , 31 km/h
Temperature: 79°F , 26°C
Dew Point: 48°F , 9°C
Humidity: 34%
Barometer: 30.07 inHg , 1018.3 hPa
Clouds: Clear
Visibility: 10 miles , 16 km
2022/08/13 19:52 KORE 131952Z AUTO 34007G17KT 10SM CLR 26/09 A3007 RMK AO2 SLP181 T02560094
KTAN - Taunton, Massachusetts, USA
Distance from station: SE 45mi, 72km
Updated: Sat, 13-Aug-2022 3:52pm EDT

 
Barometer: 30.03 inHg , 1016.9 hPa
2022/08/13 19:52 KTAN 131952Z AUTO A3003 RMK AO2 SLPNO PWINO $
 
KPVD - Providence/Green, Rhode Island, USA
Distance from station: S 48mi, 77km
Updated: Sat, 13-Aug-2022 3:51pm EDT
Mostly cloudy
Mostly cloudy
 Wind from N
Wind: N 9 mph , 15 km/h
Temperature: 81°F , 27°C
Dew Point: 48°F , 9°C
Humidity: 32%
Barometer: 30.03 inHg , 1016.9 hPa
Clouds: Mostly cloudy
Visibility: 10 miles , 16 km
Cloud details: Partly cloudy 7000 ft
Mostly cloudy 8000 ft
2022/08/13 19:51 KPVD 131951Z 35008KT 10SM SCT070 BKN080 27/09 A3003 RMK AO2 SLP169 T02670089 $
KGHG - Marshfield, Massachusetts, USA
Distance from station: ESE 49mi, 79km
Updated: Sat, 13-Aug-2022 4:15pm EDT
Clear
Clear
 Wind from varies
Wind: varies 7 mph , 11 km/h
Temperature: 70°F , 21°C
Dew Point: 59°F , 15°C
Humidity: 69%
Barometer: 30.05 inHg , 1017.6 hPa
Clouds: Clear
Visibility: 10 miles , 16 km
2022/08/13 20:15 KGHG 132015Z AUTO VRB06KT 10SM CLR 21/15 A3005 RMK AO2
 
KEEN - Keene/Dillant, New Hampshire, USA
Distance from station: NW 50mi, 81km
Updated: Sat, 13-Aug-2022 3:56pm EDT
Overcast
Overcast
 Wind from NW
Wind: NW 7 mph , 11 km/h
Temperature: 73°F , 23°C
Dew Point: 52°F , 11°C
Humidity: 47%
Clouds: Overcast
Visibility: 10 miles , 16 km
Cloud details: Few Clouds 5000 ft
Overcast 8000 ft
2022/08/13 19:56 KEEN 131956Z AUTO 32006KT 10SM FEW050 OVC080 23/11 RMK AO2 SLPNO T02280111 $